createdAt,value
2019-03-19T00:00:53.319Z,5.64
2019-03-19T00:01:53.531Z,5.64
2019-03-19T00:02:54.288Z,5.63
2019-03-19T00:03:53.367Z,5.62
2019-03-19T00:04:53.355Z,5.62
2019-03-19T00:05:53.388Z,5.61
2019-03-19T00:06:53.339Z,5.61
2019-03-19T00:07:53.349Z,5.61
2019-03-19T00:08:53.333Z,5.61
2019-03-19T00:09:53.339Z,5.62
2019-03-19T00:10:53.349Z,5.6
2019-03-19T00:11:53.352Z,5.58
2019-03-19T00:12:53.357Z,5.61
2019-03-19T00:13:53.344Z,5.64
2019-03-19T00:14:53.322Z,5.61
2019-03-19T00:15:53.338Z,5.6
2019-03-19T00:16:54.202Z,5.63
2019-03-19T00:17:53.414Z,5.6
2019-03-19T00:18:53.327Z,5.6
2019-03-19T00:19:53.330Z,5.62
2019-03-19T00:20:53.354Z,5.61
2019-03-19T00:21:53.299Z,5.61
2019-03-19T00:22:53.344Z,5.64
2019-03-19T00:23:53.589Z,5.61
2019-03-19T00:24:53.683Z,5.62
2019-03-19T00:25:53.450Z,5.59
2019-03-19T00:26:53.340Z,5.59
2019-03-19T00:27:53.324Z,5.61
2019-03-19T00:28:53.293Z,5.59
2019-03-19T00:29:53.467Z,5.58
2019-03-19T00:30:53.290Z,5.58
2019-03-19T00:31:53.327Z,5.58
2019-03-19T00:32:53.334Z,5.58
2019-03-19T00:33:53.485Z,5.59
2019-03-19T00:34:53.271Z,5.57
2019-03-19T00:35:53.280Z,5.59
2019-03-19T00:36:53.319Z,5.58
2019-03-19T00:37:53.302Z,5.57
2019-03-19T00:38:53.270Z,5.58
2019-03-19T00:39:53.288Z,5.53
2019-03-19T00:40:53.289Z,5.52
2019-03-19T00:41:53.484Z,5.55
2019-03-19T00:42:53.319Z,5.59
2019-03-19T00:43:53.280Z,5.59
2019-03-19T00:44:53.299Z,5.58
2019-03-19T00:45:53.513Z,5.55
2019-03-19T00:46:53.527Z,5.53
2019-03-19T00:47:53.304Z,5.55
2019-03-19T00:48:53.259Z,5.58
2019-03-19T00:49:53.263Z,5.55
2019-03-19T00:50:53.282Z,5.58
2019-03-19T00:51:54.167Z,5.6
2019-03-19T00:52:53.281Z,5.58
2019-03-19T00:53:53.245Z,5.61
2019-03-19T00:54:53.275Z,5.56
2019-03-19T00:55:53.265Z,5.59
2019-03-19T00:56:53.267Z,5.55
2019-03-19T00:57:53.255Z,5.55
2019-03-19T00:58:53.251Z,5.58
2019-03-19T00:59:53.262Z,5.58
2019-03-19T01:00:53.240Z,5.56
2019-03-19T01:01:53.243Z,5.57
2019-03-19T01:02:53.257Z,5.55
2019-03-19T01:03:53.312Z,5.59
2019-03-19T01:04:53.302Z,5.59
2019-03-19T01:05:53.258Z,5.58
2019-03-19T01:06:53.278Z,5.59
2019-03-19T01:07:53.576Z,5.59
2019-03-19T01:08:53.229Z,5.59
2019-03-19T01:09:53.245Z,5.6
2019-03-19T01:10:53.260Z,5.56
2019-03-19T01:11:53.233Z,5.59
2019-03-19T01:12:53.239Z,5.56
2019-03-19T01:13:53.217Z,5.56
2019-03-19T01:14:53.244Z,5.56
2019-03-19T01:15:53.245Z,5.55
2019-03-19T01:16:53.230Z,5.58
2019-03-19T01:17:53.252Z,5.56
2019-03-19T01:18:53.247Z,5.57
2019-03-19T01:19:53.239Z,5.57
2019-03-19T01:20:53.213Z,5.59
2019-03-19T01:21:53.233Z,5.6
2019-03-19T01:22:53.224Z,5.6
2019-03-19T01:23:53.293Z,5.59
2019-03-19T01:24:53.303Z,5.6
2019-03-19T01:25:56.354Z,5.59
2019-03-19T01:26:53.225Z,5.56
2019-03-19T01:27:53.259Z,5.54
2019-03-19T01:28:53.210Z,5.53
2019-03-19T01:29:53.242Z,5.55
2019-03-19T01:30:53.257Z,5.53
2019-03-19T01:31:53.203Z,5.52
2019-03-19T01:32:53.270Z,5.51
2019-03-19T01:33:53.343Z,5.52
2019-03-19T01:34:53.235Z,5.56
2019-03-19T01:35:53.187Z,5.56
2019-03-19T01:36:53.184Z,5.53
2019-03-19T01:37:53.252Z,5.53
2019-03-19T01:38:53.206Z,5.53
2019-03-19T01:39:53.187Z,5.53
2019-03-19T01:40:53.203Z,5.54
2019-03-19T01:41:53.187Z,5.56
2019-03-19T01:42:53.190Z,5.54
2019-03-19T01:43:53.191Z,5.55
2019-03-19T01:44:53.198Z,5.54
2019-03-19T01:45:53.182Z,5.52
2019-03-19T01:46:53.212Z,5.51
2019-03-19T01:47:53.165Z,5.49
2019-03-19T01:48:53.205Z,5.49
2019-03-19T01:49:53.183Z,5.48
2019-03-19T01:50:53.446Z,5.5
2019-03-19T01:51:53.169Z,5.49
2019-03-19T01:52:53.161Z,5.48
2019-03-19T01:53:53.172Z,5.48
2019-03-19T01:54:53.173Z,5.49
2019-03-19T01:55:53.183Z,5.48
2019-03-19T01:56:53.167Z,5.47
2019-03-19T01:57:53.181Z,5.46
2019-03-19T01:58:53.180Z,5.47
2019-03-19T01:59:53.185Z,5.46
2019-03-19T02:00:53.219Z,5.45
2019-03-19T02:01:53.172Z,5.44
2019-03-19T02:02:53.174Z,5.45
2019-03-19T02:03:53.156Z,5.44
2019-03-19T02:04:53.181Z,5.43
2019-03-19T02:05:53.263Z,5.42
2019-03-19T02:06:53.149Z,5.42
2019-03-19T02:07:53.208Z,5.42
2019-03-19T02:08:53.212Z,5.41
2019-03-19T02:09:53.138Z,5.42
2019-03-19T02:10:53.156Z,5.41
2019-03-19T02:11:53.163Z,5.4
2019-03-19T02:12:53.492Z,5.39
2019-03-19T02:13:53.156Z,5.37
2019-03-19T02:14:53.139Z,5.35
2019-03-19T02:15:53.151Z,5.36
2019-03-19T02:16:53.131Z,5.37
2019-03-19T02:17:53.155Z,5.37
2019-03-19T02:18:53.136Z,5.35
2019-03-19T02:19:53.141Z,5.36
2019-03-19T02:20:53.115Z,5.33
2019-03-19T02:21:53.134Z,5.33
2019-03-19T02:22:53.327Z,5.31
2019-03-19T02:23:53.152Z,5.3
2019-03-19T02:24:53.154Z,5.31
2019-03-19T02:25:53.132Z,5.31
2019-03-19T02:26:53.199Z,5.32
2019-03-19T02:27:53.257Z,5.3
2019-03-19T02:28:53.140Z,5.3
2019-03-19T02:29:53.121Z,5.29
2019-03-19T02:30:53.278Z,5.28
2019-03-19T02:31:53.156Z,5.29
2019-03-19T02:32:53.141Z,5.27
2019-03-19T02:33:53.244Z,5.27
2019-03-19T02:34:53.295Z,5.26
2019-03-19T02:35:53.197Z,5.27
2019-03-19T02:36:53.122Z,5.26
2019-03-19T02:37:53.309Z,5.25
2019-03-19T02:38:53.120Z,5.22
2019-03-19T02:39:53.113Z,5.26
2019-03-19T02:40:53.193Z,5.24
2019-03-19T02:41:53.149Z,5.24
2019-03-19T02:42:53.142Z,5.22
2019-03-19T02:43:53.091Z,5.2
2019-03-19T02:44:53.114Z,5.24
2019-03-19T02:45:53.106Z,5.25
2019-03-19T02:46:53.095Z,5.23
2019-03-19T02:47:53.526Z,5.22
2019-03-19T02:48:53.171Z,5.21
2019-03-19T02:49:53.116Z,5.21
2019-03-19T02:50:53.110Z,5.21
2019-03-19T02:51:53.104Z,5.19
2019-03-19T02:52:53.116Z,5.18
2019-03-19T02:53:53.095Z,5.19
2019-03-19T02:54:53.079Z,5.17
2019-03-19T02:55:54.947Z,5.19
2019-03-19T02:56:53.093Z,5.18
2019-03-19T02:57:53.118Z,5.17
2019-03-19T02:58:53.115Z,5.15
2019-03-19T02:59:53.064Z,5.17
2019-03-19T03:00:53.089Z,5.15
2019-03-19T03:01:53.143Z,5.19
2019-03-19T03:02:53.116Z,5.22
2019-03-19T03:03:53.083Z,5.19
2019-03-19T03:04:53.125Z,5.21
2019-03-19T03:05:53.111Z,5.21
2019-03-19T03:06:53.070Z,5.19
2019-03-19T03:07:53.132Z,5.2
2019-03-19T03:08:53.096Z,5.2
2019-03-19T03:09:53.059Z,5.18
2019-03-19T03:10:53.120Z,5.18
2019-03-19T03:11:53.069Z,5.2
2019-03-19T03:12:53.095Z,5.21
2019-03-19T03:13:53.053Z,5.18
2019-03-19T03:14:53.136Z,5.15
2019-03-19T03:15:53.014Z,5.17
2019-03-19T03:16:53.064Z,5.18
2019-03-19T03:17:53.050Z,5.16
2019-03-19T03:18:53.119Z,5.14
2019-03-19T03:19:53.061Z,5.13
2019-03-19T03:20:53.066Z,5.12
2019-03-19T03:21:53.071Z,5.12
2019-03-19T03:22:53.061Z,5.12
2019-03-19T03:23:53.046Z,5.15
2019-03-19T03:24:53.120Z,5.17
2019-03-19T03:25:53.069Z,5.19
2019-03-19T03:26:53.093Z,5.16
2019-03-19T03:27:53.097Z,5.2
2019-03-19T03:28:53.067Z,5.17
2019-03-19T03:29:53.040Z,5.16
2019-03-19T03:30:53.133Z,5.16
2019-03-19T03:31:53.072Z,5.15
2019-03-19T03:32:53.492Z,5.18
2019-03-19T03:33:53.019Z,5.17
2019-03-19T03:34:53.062Z,5.17
2019-03-19T03:35:53.077Z,5.18
2019-03-19T03:36:53.054Z,5.16
2019-03-19T03:37:53.079Z,5.16
2019-03-19T03:38:53.034Z,5.18
2019-03-19T03:39:53.008Z,5.2
2019-03-19T03:40:53.024Z,5.19
2019-03-19T03:41:53.214Z,5.18
2019-03-19T03:42:53.006Z,5.2
2019-03-19T03:43:52.977Z,5.2
2019-03-19T03:44:53.030Z,5.19
2019-03-19T03:45:53.131Z,5.16
2019-03-19T03:46:52.991Z,5.14
2019-03-19T03:47:53.037Z,5.17
2019-03-19T03:48:53.088Z,5.16
2019-03-19T03:49:53.083Z,5.15
2019-03-19T03:50:53.019Z,5.17
2019-03-19T03:51:52.992Z,5.18
2019-03-19T03:52:53.061Z,5.17
2019-03-19T03:53:53.019Z,5.16
2019-03-19T03:54:53.026Z,5.14
2019-03-19T03:55:53.084Z,5.14
2019-03-19T03:57:03.296Z,5.11
2019-03-19T03:57:53.020Z,5.11
2019-03-19T03:59:01.720Z,5.11
2019-03-19T03:59:53.036Z,5.11
2019-03-19T04:00:53.391Z,5.15
2019-03-19T04:01:53.024Z,5.14
2019-03-19T04:02:53.061Z,5.16
2019-03-19T04:03:52.957Z,5.14
2019-03-19T04:04:53.012Z,5.14
2019-03-19T04:05:53.003Z,5.13
2019-03-19T04:06:52.989Z,5.13
2019-03-19T04:07:52.960Z,5.13
2019-03-19T04:08:52.984Z,5.14
2019-03-19T04:09:53.147Z,5.15
2019-03-19T04:10:53.011Z,5.15
2019-03-19T04:11:53.000Z,5.13
2019-03-19T04:12:53.029Z,5.13
2019-03-19T04:13:52.988Z,5.12
2019-03-19T04:14:53.017Z,5.12
2019-03-19T04:15:53.012Z,5.12
2019-03-19T04:16:53.007Z,5.12
2019-03-19T04:17:52.973Z,5.11
2019-03-19T04:18:52.956Z,5.15
2019-03-19T04:19:52.980Z,5.16
2019-03-19T04:20:52.925Z,5.17
2019-03-19T04:21:52.962Z,5.16
2019-03-19T04:22:53.238Z,5.16
2019-03-19T04:23:52.986Z,5.17
2019-03-19T04:24:52.983Z,5.18
2019-03-19T04:25:52.977Z,5.17
2019-03-19T04:26:52.963Z,5.17
2019-03-19T04:27:52.969Z,5.18
2019-03-19T04:28:52.961Z,5.15
2019-03-19T04:29:52.958Z,5.13
2019-03-19T04:30:52.957Z,5.13
2019-03-19T04:31:53.014Z,5.12
2019-03-19T04:32:52.961Z,5.12
2019-03-19T04:33:53.014Z,5.11
2019-03-19T04:34:52.962Z,5.13
2019-03-19T04:35:52.934Z,5.15
2019-03-19T04:36:52.937Z,5.18
2019-03-19T04:37:52.935Z,5.16
2019-03-19T04:38:53.072Z,5.14
2019-03-19T04:39:52.924Z,5.16
2019-03-19T04:40:52.964Z,5.18
2019-03-19T04:41:52.949Z,5.16
2019-03-19T04:42:53.086Z,5.18
2019-03-19T04:43:53.235Z,5.16
2019-03-19T04:44:53.144Z,5.17
2019-03-19T04:45:52.931Z,5.15
2019-03-19T04:46:53.092Z,5.15
2019-03-19T04:47:52.942Z,5.14
2019-03-19T04:48:52.931Z,5.12
2019-03-19T04:49:52.941Z,5.12
2019-03-19T04:50:53.254Z,5.12
2019-03-19T04:51:52.925Z,5.12
2019-03-19T04:52:52.880Z,5.13
2019-03-19T04:53:52.934Z,5.13
2019-03-19T04:54:52.896Z,5.12
2019-03-19T04:55:52.900Z,5.15
2019-03-19T04:56:52.955Z,5.17
2019-03-19T04:57:52.889Z,5.14
2019-03-19T04:58:52.911Z,5.16
2019-03-19T04:59:52.937Z,5.17
2019-03-19T05:00:52.900Z,5.14
2019-03-19T05:01:52.880Z,5.18
2019-03-19T05:02:52.861Z,5.12
2019-03-19T05:03:52.884Z,5.11
2019-03-19T05:04:52.898Z,5.11
2019-03-19T05:05:53.190Z,5.09
2019-03-19T05:06:52.933Z,5.11
2019-03-19T05:07:52.914Z,5.09
2019-03-19T05:08:52.911Z,5.08
2019-03-19T05:09:52.898Z,5.08
2019-03-19T05:10:52.884Z,5.09
2019-03-19T05:11:52.880Z,5.1
2019-03-19T05:12:52.850Z,5.11
2019-03-19T05:13:52.858Z,5.1
2019-03-19T05:14:52.888Z,5.09
2019-03-19T05:15:52.867Z,5.09
2019-03-19T05:16:52.867Z,5.1
2019-03-19T05:17:52.857Z,5.09
2019-03-19T05:18:52.861Z,5.09
2019-03-19T05:19:52.860Z,5.04
2019-03-19T05:20:52.866Z,5.06
2019-03-19T05:21:52.850Z,5.08
2019-03-19T05:22:52.874Z,5.07
2019-03-19T05:23:52.846Z,5.05
2019-03-19T05:24:52.897Z,5.04
2019-03-19T05:25:53.737Z,5.07
2019-03-19T05:26:52.822Z,5.05
2019-03-19T05:27:53.015Z,5.07
2019-03-19T05:28:52.878Z,5.07
2019-03-19T05:29:52.868Z,5.03
2019-03-19T05:30:52.855Z,5.04
2019-03-19T05:31:52.843Z,5.08
2019-03-19T05:32:52.871Z,5.07
2019-03-19T05:33:52.856Z,5.05
2019-03-19T05:34:52.850Z,5.05
2019-03-19T05:35:52.838Z,5.05
2019-03-19T05:36:52.876Z,5.04
2019-03-19T05:37:52.827Z,5.06
2019-03-19T05:38:53.701Z,5.03
2019-03-19T05:39:52.863Z,5.04
2019-03-19T05:40:52.825Z,5.02
2019-03-19T05:41:52.921Z,5.04
2019-03-19T05:42:52.825Z,5.04
2019-03-19T05:43:52.846Z,5.04
2019-03-19T05:44:52.921Z,5.05
2019-03-19T05:45:52.799Z,5.03
2019-03-19T05:46:52.801Z,5.06
2019-03-19T05:48:52.816Z,5.06
2019-03-19T05:49:52.849Z,5.06
2019-03-19T05:50:52.828Z,5.06
2019-03-19T05:51:52.844Z,5.07
2019-03-19T05:52:52.822Z,5.05
2019-03-19T05:53:52.844Z,5.06
2019-03-19T05:54:52.820Z,5.06
2019-03-19T05:55:52.899Z,5.07
2019-03-19T05:56:52.801Z,5.08
2019-03-19T05:57:52.802Z,5.08
2019-03-19T05:58:52.778Z,5.07
2019-03-19T05:59:52.867Z,5.06
2019-03-19T06:00:52.911Z,5.08
2019-03-19T06:01:52.883Z,5.08
2019-03-19T06:02:53.087Z,5.07
2019-03-19T06:03:52.814Z,5.08
2019-03-19T06:04:52.801Z,5.09
2019-03-19T06:05:52.787Z,5.1
2019-03-19T06:06:52.779Z,5.11
2019-03-19T06:07:52.822Z,5.09
2019-03-19T06:08:52.781Z,5.08
2019-03-19T06:09:52.805Z,5.07
2019-03-19T06:10:54.448Z,5.1
2019-03-19T06:11:53.126Z,5.11
2019-03-19T06:12:52.874Z,5.09
2019-03-19T06:13:52.804Z,5.06
2019-03-19T06:14:52.782Z,5.09
2019-03-19T06:15:52.788Z,5.1
2019-03-19T06:16:52.773Z,5.08
2019-03-19T06:17:52.850Z,5.11
2019-03-19T06:18:52.830Z,5.1
2019-03-19T06:19:52.771Z,5.08
2019-03-19T06:20:52.808Z,5.08
2019-03-19T06:21:52.764Z,5.07
2019-03-19T06:22:52.796Z,5.07
2019-03-19T06:23:52.781Z,5.09
2019-03-19T06:24:52.761Z,5.09
2019-03-19T06:25:52.832Z,5.13
2019-03-19T06:26:52.856Z,5.12
2019-03-19T06:28:01.163Z,5.14
2019-03-19T06:28:52.805Z,5.12
2019-03-19T06:29:52.744Z,5.15
2019-03-19T06:30:52.764Z,5.15
2019-03-19T06:31:52.739Z,5.16
2019-03-19T06:32:53.155Z,5.16
2019-03-19T06:33:52.734Z,5.15
2019-03-19T06:34:52.735Z,5.14
2019-03-19T06:35:52.732Z,5.18
2019-03-19T06:36:52.775Z,5.2
2019-03-19T06:37:52.800Z,5.2
2019-03-19T06:38:52.727Z,5.2
2019-03-19T06:39:52.747Z,5.2
2019-03-19T06:40:52.764Z,5.2
2019-03-19T06:41:52.721Z,5.22
2019-03-19T06:42:52.756Z,5.21
2019-03-19T06:43:52.731Z,5.22
2019-03-19T06:44:52.724Z,5.22
2019-03-19T06:45:52.748Z,5.21
2019-03-19T06:46:52.731Z,5.21
2019-03-19T06:47:52.729Z,5.19
2019-03-19T06:48:52.726Z,5.2
2019-03-19T06:49:52.731Z,5.19
2019-03-19T06:50:52.757Z,5.18
2019-03-19T06:51:52.803Z,5.17
2019-03-19T06:52:52.749Z,5.17
2019-03-19T06:53:52.735Z,5.17
2019-03-19T06:54:53.386Z,5.19
2019-03-19T06:55:52.728Z,5.19
2019-03-19T06:56:52.724Z,5.17
2019-03-19T06:57:52.708Z,5.18
2019-03-19T06:58:52.708Z,5.18
2019-03-19T06:59:52.703Z,5.22
2019-03-19T07:00:52.716Z,5.21
2019-03-19T07:01:52.729Z,5.25
2019-03-19T07:02:52.759Z,5.25
2019-03-19T07:03:52.743Z,5.23
2019-03-19T07:04:52.723Z,5.24
2019-03-19T07:05:52.686Z,5.25
2019-03-19T07:06:52.692Z,5.21
2019-03-19T07:07:52.780Z,5.21
2019-03-19T07:08:52.731Z,5.21
2019-03-19T07:09:52.692Z,5.21
2019-03-19T07:10:52.694Z,5.23
2019-03-19T07:11:52.704Z,5.23
2019-03-19T07:12:52.696Z,5.24
2019-03-19T07:13:52.720Z,5.24
2019-03-19T07:14:52.720Z,5.24
2019-03-19T07:15:52.739Z,5.24
2019-03-19T07:16:52.685Z,5.22
2019-03-19T07:17:52.692Z,5.23
2019-03-19T07:18:52.681Z,5.21
2019-03-19T07:19:52.665Z,5.28
2019-03-19T07:20:52.667Z,5.27
2019-03-19T07:21:52.670Z,5.27
2019-03-19T07:22:52.670Z,5.25
2019-03-19T07:23:52.661Z,5.28
2019-03-19T07:24:52.669Z,5.28
2019-03-19T07:25:52.683Z,5.27
2019-03-19T07:26:52.670Z,5.3
2019-03-19T07:27:52.657Z,5.31
2019-03-19T07:28:52.699Z,5.3
2019-03-19T07:29:52.668Z,5.33
2019-03-19T07:30:52.666Z,5.34
2019-03-19T07:31:52.671Z,5.35
2019-03-19T07:32:52.660Z,5.36
2019-03-19T07:33:52.789Z,5.34
2019-03-19T07:34:52.639Z,5.33
2019-03-19T07:35:52.649Z,5.35
2019-03-19T07:36:52.640Z,5.34
2019-03-19T07:37:52.914Z,5.36
2019-03-19T07:38:52.471Z,5.37
2019-03-19T07:39:52.660Z,5.3
2019-03-19T07:40:52.679Z,5.32
2019-03-19T07:41:52.747Z,5.31
2019-03-19T07:42:52.655Z,5.31
2019-03-19T07:43:52.654Z,5.33
2019-03-19T07:44:52.665Z,5.36
2019-03-19T07:45:52.719Z,5.36
2019-03-19T07:46:52.661Z,5.35
2019-03-19T07:47:52.662Z,5.37
2019-03-19T07:48:52.842Z,5.38
2019-03-19T07:49:52.659Z,5.4
2019-03-19T07:50:52.636Z,5.39
2019-03-19T07:51:53.834Z,5.37
2019-03-19T07:52:52.649Z,5.4
2019-03-19T07:53:52.633Z,5.4
2019-03-19T07:54:52.628Z,5.43
2019-03-19T07:55:53.876Z,5.43
2019-03-19T07:56:52.637Z,5.44
2019-03-19T07:57:52.627Z,5.46
2019-03-19T07:58:52.653Z,5.47
2019-03-19T07:59:52.708Z,5.46
2019-03-19T08:00:52.648Z,5.43
2019-03-19T08:01:52.611Z,5.46
2019-03-19T08:02:52.706Z,5.44
2019-03-19T08:03:52.657Z,5.43
2019-03-19T08:04:52.603Z,5.43
2019-03-19T08:05:52.594Z,5.44
2019-03-19T08:06:52.647Z,5.46
2019-03-19T08:07:52.639Z,5.43
2019-03-19T08:08:52.735Z,5.41
2019-03-19T08:09:52.650Z,5.45
2019-03-19T08:10:52.595Z,5.42
2019-03-19T08:11:52.659Z,5.42
2019-03-19T08:12:52.614Z,5.41
2019-03-19T08:13:52.601Z,5.41
2019-03-19T08:14:52.714Z,5.42
2019-03-19T08:15:52.634Z,5.39
2019-03-19T08:16:53.599Z,5.42
2019-03-19T08:17:52.575Z,5.41
2019-03-19T08:18:52.597Z,5.44
2019-03-19T08:19:52.603Z,5.45
2019-03-19T08:20:52.802Z,5.44
2019-03-19T08:21:52.568Z,5.46
2019-03-19T08:22:52.573Z,5.46
2019-03-19T08:23:52.583Z,5.46
2019-03-19T08:24:52.567Z,5.43
2019-03-19T08:25:52.630Z,5.45
2019-03-19T08:26:52.580Z,5.45
2019-03-19T08:27:52.587Z,5.48
2019-03-19T08:28:55.881Z,5.48
2019-03-19T08:29:52.599Z,5.51
2019-03-19T08:30:52.616Z,5.5
2019-03-19T08:31:52.841Z,5.47
2019-03-19T08:32:52.575Z,5.45
2019-03-19T08:33:52.581Z,5.48
2019-03-19T08:34:52.577Z,5.48
2019-03-19T08:35:52.553Z,5.43
2019-03-19T08:36:52.585Z,5.46
2019-03-19T08:37:52.583Z,5.51
2019-03-19T08:38:52.553Z,5.52
2019-03-19T08:39:52.544Z,5.55
2019-03-19T08:40:52.654Z,5.56
2019-03-19T08:41:52.553Z,5.56
2019-03-19T08:42:53.576Z,5.52
2019-03-19T08:43:52.955Z,5.51
2019-03-19T08:44:52.549Z,5.56
2019-03-19T08:45:52.561Z,5.56
2019-03-19T08:46:52.529Z,5.57
2019-03-19T08:47:52.548Z,5.59
2019-03-19T08:48:52.537Z,5.54
2019-03-19T08:49:52.835Z,5.59
2019-03-19T08:50:52.520Z,5.59
2019-03-19T08:51:52.528Z,5.62
2019-03-19T08:52:56.033Z,5.61
2019-03-19T08:53:52.518Z,5.55
2019-03-19T08:54:52.556Z,5.54
2019-03-19T08:55:52.533Z,5.53
2019-03-19T08:56:52.526Z,5.53
2019-03-19T08:57:52.526Z,5.53
2019-03-19T08:58:52.599Z,5.56
2019-03-19T08:59:52.530Z,5.57
2019-03-19T09:00:52.503Z,5.56
2019-03-19T09:01:52.517Z,5.55
2019-03-19T09:02:52.514Z,5.51
2019-03-19T09:03:52.500Z,5.49
2019-03-19T09:04:52.545Z,5.5
2019-03-19T09:05:52.585Z,5.47
2019-03-19T09:06:52.532Z,5.44
2019-03-19T09:07:52.505Z,5.42
2019-03-19T09:08:52.495Z,5.47
2019-03-19T09:09:52.546Z,5.51
2019-03-19T09:10:52.614Z,5.43
2019-03-19T09:11:52.545Z,5.38
2019-03-19T09:12:52.525Z,5.37
2019-03-19T09:13:52.488Z,5.41
2019-03-19T09:14:52.486Z,5.29
2019-03-19T09:15:52.498Z,5.27
2019-03-19T09:16:52.505Z,5.3
2019-03-19T09:17:52.520Z,5.32
2019-03-19T09:18:52.493Z,5.27
2019-03-19T09:19:52.481Z,5.31
2019-03-19T09:20:54.325Z,5.31
2019-03-19T09:21:52.494Z,5.35
2019-03-19T09:22:52.529Z,5.27
2019-03-19T09:23:52.475Z,5.26
2019-03-19T09:24:52.530Z,5.23
2019-03-19T09:25:52.478Z,5.27
2019-03-19T09:26:52.468Z,5.24
2019-03-19T09:27:52.510Z,5.26
2019-03-19T09:28:52.476Z,5.26
2019-03-19T09:29:52.466Z,5.34
2019-03-19T09:30:52.473Z,5.33
2019-03-19T09:31:52.521Z,5.32
2019-03-19T09:32:52.608Z,5.35
2019-03-19T09:33:52.451Z,5.46
2019-03-19T09:34:52.471Z,5.48
2019-03-19T09:35:52.494Z,5.36
2019-03-19T09:36:58.045Z,5.47
2019-03-19T09:37:59.461Z,5.61
2019-03-19T09:38:52.457Z,5.57
2019-03-19T09:39:52.474Z,5.47
2019-03-19T09:40:52.495Z,5.15
2019-03-19T09:41:52.492Z,5.29
2019-03-19T09:42:52.508Z,5.37
2019-03-19T09:43:53.856Z,5.42
2019-03-19T09:44:58.961Z,5.41
2019-03-19T09:45:52.453Z,5.44
2019-03-19T09:46:52.478Z,5.4
2019-03-19T09:47:52.498Z,5.38
2019-03-19T09:48:52.513Z,5.4
2019-03-19T09:49:52.447Z,5.36
2019-03-19T09:50:52.445Z,5.29
2019-03-19T09:51:52.427Z,5.31
2019-03-19T09:52:52.431Z,5.32
2019-03-19T09:53:52.623Z,5.43
2019-03-19T09:54:52.755Z,5.35
2019-03-19T09:55:52.447Z,5.37
2019-03-19T09:56:52.434Z,5.33
2019-03-19T09:57:52.518Z,5.3
2019-03-19T09:58:52.489Z,5.3
2019-03-19T09:59:52.428Z,5.28
2019-03-19T10:00:52.432Z,5.29
2019-03-19T10:01:52.469Z,5.28
2019-03-19T10:02:52.402Z,5.2
2019-03-19T10:03:52.453Z,5.2
2019-03-19T10:04:52.480Z,5.34
2019-03-19T10:05:52.418Z,5.24
2019-03-19T10:06:52.432Z,5.23
2019-03-19T10:07:52.432Z,5.3
2019-03-19T10:08:52.451Z,5.32
2019-03-19T10:09:52.430Z,5.21
2019-03-19T10:10:52.826Z,5.28
2019-03-19T10:11:52.424Z,5.28
2019-03-19T10:12:52.419Z,5.26
2019-03-19T10:13:52.662Z,5.25
2019-03-19T10:14:52.410Z,4.88
2019-03-19T10:15:52.520Z,4.38
2019-03-19T10:16:52.443Z,4.29
2019-03-19T10:17:52.411Z,4.18
2019-03-19T10:18:52.496Z,4.28
2019-03-19T10:19:52.402Z,4.39
2019-03-19T10:20:52.398Z,4.46
2019-03-19T10:21:52.405Z,4.51
2019-03-19T10:22:52.465Z,4.71
2019-03-19T10:23:52.429Z,4.32
2019-03-19T10:24:52.393Z,4.37
2019-03-19T10:25:52.383Z,4.5
2019-03-19T10:26:52.374Z,4.42
2019-03-19T10:27:52.394Z,4.45
2019-03-19T10:28:52.383Z,4.47
2019-03-19T10:29:52.379Z,4.61
2019-03-19T10:30:52.361Z,4.61
2019-03-19T10:31:52.389Z,4.58
2019-03-19T10:32:52.582Z,4.55
2019-03-19T10:33:52.381Z,4.58
2019-03-19T10:34:52.436Z,4.65
2019-03-19T10:35:52.402Z,4.58
2019-03-19T10:36:52.391Z,4.68
2019-03-19T10:37:52.454Z,4.6
2019-03-19T10:38:52.445Z,4.5
2019-03-19T10:39:52.369Z,4.47
2019-03-19T10:40:52.363Z,4.58
2019-03-19T10:41:52.379Z,4.52
2019-03-19T10:42:52.351Z,4.5
2019-03-19T10:43:52.359Z,4.44
2019-03-19T10:44:52.346Z,4.44
2019-03-19T10:45:52.399Z,4.45
2019-03-19T10:46:52.379Z,4.4
2019-03-19T10:47:52.364Z,4.38
2019-03-19T10:48:52.349Z,4.45
2019-03-19T10:49:52.355Z,4.43
2019-03-19T10:50:52.410Z,4.39
2019-03-19T10:51:52.360Z,4.29
2019-03-19T10:52:52.371Z,4.35
2019-03-19T10:53:52.403Z,4.44
2019-03-19T10:54:52.424Z,4.5
2019-03-19T10:55:52.353Z,4.59
2019-03-19T10:56:52.345Z,4.38
2019-03-19T10:57:52.411Z,4.43
2019-03-19T10:58:52.640Z,4.43
2019-03-19T10:59:52.678Z,4.45
2019-03-19T11:00:06.605Z,4.47
2019-03-19T11:01:06.327Z,4.5
2019-03-19T11:02:06.301Z,4.47
2019-03-19T11:03:06.317Z,4.4
2019-03-19T11:04:06.418Z,4.51
2019-03-19T11:05:06.294Z,4.4
2019-03-19T11:06:06.312Z,4.37
2019-03-19T11:07:06.409Z,4.36
2019-03-19T11:08:06.372Z,4.38
2019-03-19T11:09:06.311Z,4.41
2019-03-19T11:10:06.366Z,4.4
2019-03-19T11:11:06.303Z,4.4
2019-03-19T11:12:06.284Z,4.47
2019-03-19T11:13:06.319Z,4.47
2019-03-19T11:14:06.296Z,4.58
2019-03-19T11:15:06.297Z,4.57
2019-03-19T11:16:06.308Z,4.54
2019-03-19T11:17:06.293Z,4.66
2019-03-19T11:18:06.288Z,4.58
2019-03-19T11:19:06.281Z,4.66
2019-03-19T11:20:06.333Z,4.75
2019-03-19T11:21:06.456Z,4.72
2019-03-19T11:22:06.441Z,4.81
2019-03-19T11:23:06.275Z,4.7
2019-03-19T11:24:06.301Z,4.62
2019-03-19T11:25:06.258Z,4.66
2019-03-19T11:26:06.270Z,4.58
2019-03-19T11:27:06.264Z,4.57
2019-03-19T11:28:06.288Z,4.54
2019-03-19T11:29:06.289Z,4.62
2019-03-19T11:30:06.965Z,4.67
2019-03-19T11:31:06.290Z,4.77
2019-03-19T11:32:06.253Z,4.8
2019-03-19T11:33:06.281Z,4.76
2019-03-19T11:34:06.311Z,4.66
2019-03-19T11:35:06.277Z,4.64
2019-03-19T11:36:06.279Z,4.64
2019-03-19T11:37:06.273Z,4.56
2019-03-19T11:38:06.292Z,4.63
2019-03-19T11:39:06.247Z,4.59
2019-03-19T11:40:06.341Z,4.68
2019-03-19T11:41:07.638Z,4.73
2019-03-19T11:42:06.652Z,4.69
2019-03-19T11:43:06.389Z,4.73
2019-03-19T11:44:06.252Z,4.74
2019-03-19T11:45:06.291Z,4.72
2019-03-19T11:46:06.257Z,4.54
2019-03-19T11:47:06.226Z,4.49
2019-03-19T11:48:06.284Z,4.54
2019-03-19T11:49:06.247Z,4.52
2019-03-19T11:50:06.248Z,4.67
2019-03-19T11:51:06.302Z,4.77
2019-03-19T11:52:06.231Z,4.63
2019-03-19T11:53:06.292Z,4.67
2019-03-19T11:54:06.267Z,4.52
2019-03-19T11:55:06.254Z,4.56
2019-03-19T11:56:06.248Z,4.59
2019-03-19T11:57:06.223Z,4.58
2019-03-19T11:58:06.229Z,4.67
2019-03-19T11:59:06.221Z,4.63
2019-03-19T12:00:11.965Z,4.55
2019-03-19T12:01:06.224Z,4.63
2019-03-19T12:02:06.299Z,4.59
2019-03-19T12:03:16.865Z,4.63
2019-03-19T12:04:06.388Z,4.58
2019-03-19T12:05:06.234Z,4.53
2019-03-19T12:06:06.263Z,4.47
2019-03-19T12:07:06.376Z,4.58
2019-03-19T12:08:06.270Z,4.58
2019-03-19T12:09:06.220Z,4.64
2019-03-19T12:10:06.311Z,4.64
2019-03-19T12:11:06.238Z,4.77
2019-03-19T12:12:06.229Z,4.69
2019-03-19T12:13:06.219Z,4.64
2019-03-19T12:14:06.232Z,4.36
2019-03-19T12:15:06.304Z,4.5
2019-03-19T12:16:06.281Z,4.5
2019-03-19T12:17:06.220Z,4.44
2019-03-19T12:18:06.258Z,4.47
2019-03-19T12:19:06.188Z,4.42
2019-03-19T12:20:06.325Z,4.4
2019-03-19T12:21:06.196Z,4.48
2019-03-19T12:22:06.194Z,4.35
2019-03-19T12:23:06.223Z,4.42
2019-03-19T12:24:06.211Z,4.4
2019-03-19T12:25:07.447Z,4.36
2019-03-19T12:26:06.305Z,4.44
2019-03-19T12:27:06.272Z,4.51
2019-03-19T12:28:06.194Z,4.52
2019-03-19T12:29:06.275Z,4.41
2019-03-19T12:30:06.286Z,4.51
2019-03-19T12:31:06.190Z,4.35
2019-03-19T12:32:06.175Z,4.29
2019-03-19T12:33:06.193Z,4.29
2019-03-19T12:34:06.180Z,4.36
2019-03-19T12:35:06.207Z,4.25
2019-03-19T12:36:06.179Z,4.29
2019-03-19T12:37:06.177Z,4.26
2019-03-19T12:38:06.158Z,4.31
2019-03-19T12:39:06.197Z,4.37
2019-03-19T12:40:06.217Z,4.41
2019-03-19T12:41:06.159Z,4.48
2019-03-19T12:42:06.210Z,4.55
2019-03-19T12:43:06.215Z,4.51
2019-03-19T12:44:06.202Z,4.49
2019-03-19T12:45:06.201Z,4.52
2019-03-19T12:46:06.192Z,4.54
2019-03-19T12:47:06.394Z,4.51
2019-03-19T12:48:06.168Z,4.6
2019-03-19T12:49:06.185Z,4.65
2019-03-19T12:50:06.245Z,4.52
2019-03-19T12:51:06.230Z,4.6
2019-03-19T12:52:06.178Z,4.74
2019-03-19T12:53:06.165Z,4.81
2019-03-19T12:54:06.147Z,4.81
2019-03-19T12:55:06.154Z,4.87
2019-03-19T12:56:06.201Z,4.79
2019-03-19T12:57:06.170Z,4.85
2019-03-19T12:58:06.181Z,4.86
2019-03-19T12:59:06.143Z,4.88
2019-03-19T13:00:06.227Z,4.83
2019-03-19T13:01:06.523Z,4.82
2019-03-19T13:02:06.162Z,4.89
2019-03-19T13:03:06.153Z,4.87
2019-03-19T13:04:06.150Z,4.8
2019-03-19T13:05:06.201Z,4.78
2019-03-19T13:06:06.167Z,4.75
2019-03-19T13:07:06.168Z,4.84
2019-03-19T13:08:06.236Z,4.69
2019-03-19T13:09:06.300Z,4.75
2019-03-19T13:10:06.140Z,4.59
2019-03-19T13:11:06.143Z,4.77
2019-03-19T13:12:06.133Z,4.71
2019-03-19T13:13:06.151Z,4.62
2019-03-19T13:14:06.146Z,4.63
2019-03-19T13:15:06.125Z,4.53
2019-03-19T13:16:06.139Z,4.51
2019-03-19T13:17:06.211Z,4.6
2019-03-19T13:18:06.144Z,4.46
2019-03-19T13:19:06.470Z,4.37
2019-03-19T13:20:06.198Z,4.29
2019-03-19T13:21:06.163Z,4.07